CheckWX is a tool to help pilots better visualize weather data.  It is not intended as a substitute for an official pre-flight weather briefing.

15:14:29 UTC

KNTD METAR
Point Mugu NAS (Naval Base Ventura Co) Airport
Oxnard, California, USA
Current

22 mins ago

KNTD 211452Z 00000KT 10SM BKN140 11/03 A3001 RMK AO2 SLP162 T01060028 53006 $
Observed
Feb-21 @ 14:52 UTC
Visibility
10 SM
Flight Rules
VFR
Cloud Levels
  • Broken at 14,000' AGL
Temperature
11°C / 52°F
Dewpoint
C / 37°F
Humidity
58%
Altimeter
30.01" Hg
Pressure
1016.22 hPa
Previous

1 hour ago

KNTD 211352Z 00000KT 10SM BKN140 09/04 A3000 RMK AO2 SLP159 T00890039 $
Observed
Feb-21 @ 13:52 UTC
Visibility
10 SM
Flight Rules
VFR
Cloud Levels
  • Broken at 14,000' AGL
Temperature
C / 48°F
Dewpoint
C / 39°F
Humidity
71%
Altimeter
30" Hg
Pressure
1015.92 hPa
Previous

2 hours ago

KNTD 211252Z AUTO 30006KT 10SM CLR 09/04 A2999 RMK AO2 SLP157 T00940044 $
Observed
Feb-21 @ 12:52 UTC
Wind
  • 300° at 6 KTS
Visibility
10 SM
Flight Rules
VFR
Cloud Levels
  • Clear skies
Temperature
C / 48°F
Dewpoint
C / 39°F
Humidity
71%
Altimeter
29.99" Hg
Pressure
1015.62 hPa